createdAt,value
2018-09-16T03:06:48.430Z,4.30
2018-09-16T03:07:49.940Z,4.20
2018-09-16T03:08:48.069Z,4.70
2018-09-16T03:09:51.726Z,3.70
2018-09-16T03:10:49.028Z,4.90
2018-09-16T03:11:48.978Z,3.90
2018-09-16T03:12:49.184Z,3.50
2018-09-16T03:13:49.775Z,4.10
2018-09-16T03:14:49.379Z,4.60
2018-09-16T03:15:49.098Z,5.30
2018-09-16T03:16:49.038Z,4.10
2018-09-16T03:17:48.964Z,4.00
2018-09-16T03:18:50.208Z,4.10
2018-09-16T03:19:51.044Z,4.10
2018-09-16T03:20:50.958Z,3.80
2018-09-16T03:21:51.128Z,4.00
2018-09-16T03:22:50.640Z,4.10
2018-09-16T03:23:50.559Z,3.80
2018-09-16T03:24:51.417Z,4.00
2018-09-16T03:25:52.385Z,5.00
2018-09-16T03:27:50.898Z,3.60
2018-09-16T03:28:51.364Z,4.30
2018-09-16T03:29:50.345Z,3.70
2018-09-16T03:30:49.408Z,3.40
2018-09-16T03:31:49.593Z,3.80
2018-09-16T03:32:49.855Z,3.60
2018-09-16T03:33:50.795Z,3.80
2018-09-16T03:34:49.878Z,3.80
2018-09-16T03:35:50.231Z,4.00
2018-09-16T03:36:50.701Z,3.90
2018-09-16T03:37:50.231Z,3.80
2018-09-16T03:38:50.452Z,3.70
2018-09-16T03:39:51.002Z,3.90
2018-09-16T03:40:50.747Z,4.10
2018-09-16T03:41:50.948Z,4.50
2018-09-16T03:42:51.530Z,4.30
2018-09-16T03:43:51.718Z,4.20
2018-09-16T03:44:51.607Z,4.30
2018-09-16T03:45:52.713Z,4.50
2018-09-16T03:46:52.025Z,4.30
2018-09-16T03:47:52.023Z,4.50
2018-09-16T03:48:52.191Z,4.30
2018-09-16T03:49:52.628Z,4.00
2018-09-16T03:50:53.429Z,4.40
2018-09-16T03:51:56.447Z,4.30
2018-09-16T03:52:53.317Z,4.10
2018-09-16T03:53:53.532Z,4.10
2018-09-16T03:54:54.504Z,5.10
2018-09-16T03:55:55.084Z,4.40
2018-09-16T03:56:53.869Z,5.00
2018-09-16T03:57:54.848Z,4.50
2018-09-16T03:58:55.329Z,5.10
2018-09-16T03:59:54.586Z,4.10
2018-09-16T04:00:55.633Z,4.90
2018-09-16T04:01:54.452Z,5.40
2018-09-16T04:02:54.815Z,4.60
2018-09-16T04:03:54.531Z,4.50
2018-09-16T04:04:55.810Z,4.60
2018-09-16T04:05:57.739Z,4.50
2018-09-16T04:06:56.696Z,4.40
2018-09-16T04:07:55.563Z,4.40
2018-09-16T04:09:01.004Z,4.70
2018-09-16T04:09:56.093Z,4.60
2018-09-16T04:10:58.861Z,4.40
2018-09-16T04:11:56.149Z,4.50
2018-09-16T04:12:56.109Z,4.10
2018-09-16T04:13:57.399Z,4.70
2018-09-16T04:14:57.413Z,4.30
2018-09-16T04:15:58.415Z,4.20
2018-09-16T04:16:57.653Z,3.60
2018-09-16T04:17:57.468Z,4.30
2018-09-16T04:19:02.117Z,4.70
2018-09-16T04:19:57.907Z,4.10
2018-09-16T04:20:58.900Z,4.20
2018-09-16T04:22:04.413Z,4.20
2018-09-16T04:23:00.304Z,4.50
2018-09-16T04:23:59.148Z,4.70
2018-09-16T04:25:00.229Z,3.90
2018-09-16T04:26:00.379Z,4.30
2018-09-16T04:27:00.148Z,3.80
2018-09-16T04:28:00.328Z,4.10
2018-09-16T04:29:01.063Z,3.80
2018-09-16T04:32:44.583Z,4.60
2018-09-16T04:33:45.674Z,4.20
2018-09-16T04:34:47.540Z,4.60
2018-09-16T04:35:44.019Z,4.50
2018-09-16T04:37:45.633Z,4.00
2018-09-16T04:38:46.608Z,4.40
2018-09-16T04:39:45.995Z,4.40
2018-09-16T04:40:46.178Z,4.50
2018-09-16T04:41:47.804Z,4.70
2018-09-16T04:42:48.612Z,4.00
2018-09-16T04:43:46.540Z,5.10
2018-09-16T04:44:48.574Z,4.80
2018-09-16T04:45:51.151Z,4.00
2018-09-16T04:46:48.480Z,4.30
2018-09-16T04:47:49.042Z,3.80
2018-09-16T04:48:46.895Z,4.20
2018-09-16T04:49:46.683Z,3.90
2018-09-16T04:50:45.357Z,4.10
2018-09-16T04:51:46.128Z,4.20
2018-09-16T04:52:44.164Z,3.90
2018-09-16T04:56:29.977Z,4.70
2018-09-16T04:57:30.014Z,4.00
2018-09-16T04:58:30.938Z,3.90
2018-09-16T04:59:30.814Z,4.30
2018-09-16T05:00:36.072Z,4.20
2018-09-16T05:01:31.459Z,3.80
2018-09-16T05:02:33.445Z,3.90
2018-09-16T05:03:39.519Z,4.10
2018-09-16T05:04:34.910Z,4.20
2018-09-16T05:05:33.256Z,4.20
2018-09-16T05:06:30.478Z,5.30
2018-09-16T05:07:30.793Z,5.10
2018-09-16T05:08:30.964Z,6.30
2018-09-16T05:09:29.146Z,4.30
2018-09-16T05:10:31.558Z,5.40
2018-09-16T05:11:29.466Z,4.40
2018-09-16T05:12:29.703Z,4.30
2018-09-16T05:13:29.683Z,4.20
2018-09-16T05:14:30.618Z,4.20
2018-09-16T05:15:30.310Z,4.30
2018-09-16T05:16:30.293Z,4.30
2018-09-16T05:17:30.424Z,4.40
2018-09-16T05:18:30.813Z,4.20
2018-09-16T05:19:30.608Z,4.90
2018-09-16T05:20:31.688Z,4.10
2018-09-16T05:23:23.937Z,4.00
2018-09-16T05:24:24.350Z,5.40
2018-09-16T05:25:25.099Z,4.00
2018-09-16T05:26:24.417Z,4.20
2018-09-16T05:27:24.357Z,4.20
2018-09-16T05:28:25.927Z,3.90
2018-09-16T05:29:25.820Z,4.20
2018-09-16T05:30:27.065Z,3.90
2018-09-16T05:31:29.118Z,3.70
2018-09-16T05:32:27.088Z,3.80
2018-09-16T05:33:27.230Z,4.20
2018-09-16T05:34:25.421Z,3.90
2018-09-16T05:35:25.056Z,3.60
2018-09-16T05:36:24.813Z,4.20
2018-09-16T05:37:25.943Z,3.90
2018-09-16T05:38:24.645Z,3.70
2018-09-16T05:39:24.376Z,4.10
2018-09-16T05:40:24.490Z,4.30
2018-09-16T05:41:25.862Z,3.90
2018-09-16T05:42:26.957Z,4.00
2018-09-16T05:43:36.132Z,3.90
2018-09-16T05:53:16.200Z,5.30
2018-09-16T06:02:37.118Z,4.40
2018-09-16T06:10:45.757Z,5.40
2018-09-16T06:11:46.177Z,3.90
2018-09-16T06:12:46.778Z,3.90
2018-09-16T06:13:46.953Z,4.20
2018-09-16T06:14:48.040Z,4.30
2018-09-16T06:15:46.349Z,4.00
2018-09-16T06:16:44.311Z,4.30
2018-09-16T06:17:44.363Z,4.60
2018-09-16T06:18:44.579Z,3.80
2018-09-16T06:19:44.579Z,4.40
2018-09-16T06:20:44.709Z,4.40
2018-09-16T06:21:45.199Z,4.30
2018-09-16T06:22:45.297Z,4.30
2018-09-16T06:23:45.692Z,4.00
2018-09-16T06:24:45.737Z,4.70
2018-09-16T06:25:46.563Z,4.80
2018-09-16T06:26:45.910Z,5.40
2018-09-16T06:27:46.082Z,4.10
2018-09-16T06:28:47.194Z,4.30
2018-09-16T06:29:46.548Z,5.00
2018-09-16T06:30:46.557Z,5.60
2018-09-16T06:31:46.936Z,4.10
2018-09-16T06:32:47.413Z,4.90
2018-09-16T06:33:47.610Z,4.80
2018-09-16T06:34:47.246Z,4.50
2018-09-16T06:35:47.523Z,4.70
2018-09-16T06:36:47.713Z,5.00
2018-09-16T06:37:47.932Z,6.00
2018-09-16T06:38:48.719Z,4.90
2018-09-16T06:39:48.228Z,4.80
2018-09-16T06:40:48.428Z,4.30
2018-09-16T06:41:48.704Z,4.40
2018-09-16T06:42:49.449Z,4.70
2018-09-16T06:43:49.115Z,4.30
2018-09-16T06:44:49.858Z,4.20
2018-09-16T06:45:49.400Z,4.30
2018-09-16T06:46:49.490Z,4.40
2018-09-16T06:47:49.657Z,4.30
2018-09-16T06:48:49.894Z,4.60
2018-09-16T06:49:50.792Z,4.30
2018-09-16T06:50:51.309Z,4.50
2018-09-16T06:51:50.518Z,4.40
2018-09-16T07:04:34.754Z,4.60
2018-09-16T07:07:52.084Z,4.80
2018-09-16T07:08:53.455Z,4.90
2018-09-16T07:09:53.549Z,6.20
2018-09-16T07:14:58.134Z,5.50
2018-09-16T07:16:00.393Z,4.10
2018-09-16T07:16:58.591Z,4.50
2018-09-16T07:18:07.809Z,4.30
2018-09-16T07:18:59.117Z,4.20
2018-09-16T07:19:58.492Z,4.90
2018-09-16T07:20:58.709Z,5.00
2018-09-16T07:21:58.784Z,5.50
2018-09-16T07:22:59.031Z,4.50
2018-09-16T07:23:59.209Z,4.80
2018-09-16T07:24:59.353Z,4.30
2018-09-16T07:25:59.574Z,3.90
2018-09-16T07:26:59.725Z,4.60
2018-09-16T07:28:02.896Z,4.30
2018-09-16T07:29:00.585Z,4.60
2018-09-16T07:30:00.144Z,5.10
2018-09-16T07:31:03.076Z,5.70
2018-09-16T07:32:01.064Z,4.60
2018-09-16T07:33:01.612Z,4.20
2018-09-16T07:34:04.536Z,4.40
2018-09-16T07:35:03.029Z,4.00
2018-09-16T07:36:01.740Z,4.00
2018-09-16T07:37:02.521Z,4.50
2018-09-16T07:38:04.322Z,4.80
2018-09-16T07:39:02.631Z,3.60
2018-09-16T07:40:02.657Z,5.10
2018-09-16T07:46:42.800Z,3.50
2018-09-16T07:47:44.332Z,4.10
2018-09-16T07:48:56.813Z,3.90
2018-09-16T07:49:41.964Z,3.90
2018-09-16T07:50:40.690Z,3.90
2018-09-16T07:51:40.797Z,4.10
2018-09-16T07:52:40.910Z,3.90
2018-09-16T07:53:41.054Z,6.10
2018-09-16T08:39:29.627Z,5.20
2018-09-16T08:59:08.623Z,3.80
2018-09-16T09:58:31.091Z,2.30
2018-09-16T09:59:30.350Z,2.90
2018-09-16T10:00:28.842Z,2.90
2018-09-16T10:01:28.724Z,3.10
2018-09-16T10:02:29.112Z,3.20
2018-09-16T10:03:29.306Z,2.60
2018-09-16T10:04:29.325Z,3.50
2018-09-16T10:05:29.612Z,3.60
2018-09-16T10:06:30.018Z,2.30
2018-09-16T10:07:30.084Z,2.90
2018-09-16T10:08:30.280Z,2.40
2018-09-16T10:09:30.332Z,2.60
2018-09-16T10:10:30.504Z,3.30
2018-09-16T10:11:30.750Z,1.70
2018-09-16T10:12:30.897Z,2.10
2018-09-16T10:13:31.362Z,3.20
2018-09-16T10:14:31.844Z,1.90
2018-09-16T10:15:32.288Z,1.90
2018-09-16T10:16:31.592Z,2.30
2018-09-16T10:17:31.864Z,2.60
2018-09-16T10:18:32.156Z,2.60
2018-09-16T10:19:32.245Z,2.70
2018-09-16T10:20:32.808Z,2.70
2018-09-16T10:21:33.379Z,3.20
2018-09-16T10:24:16.427Z,2.40
2018-09-16T10:25:18.138Z,2.50
2018-09-16T10:26:18.246Z,3.70
2018-09-16T10:27:17.208Z,2.20
2018-09-16T10:28:16.558Z,2.70
2018-09-16T10:29:17.467Z,2.20
2018-09-16T10:30:17.086Z,3.20
2018-09-16T10:31:17.231Z,2.40
2018-09-16T10:32:18.685Z,2.10
2018-09-16T10:33:17.476Z,2.20
2018-09-16T10:34:19.680Z,2.90
2018-09-16T10:35:23.666Z,2.30
2018-09-16T11:10:25.152Z,2.00
2018-09-16T11:11:15.057Z,3.00
2018-09-16T11:12:12.993Z,2.90
2018-09-16T11:13:12.830Z,1.90
2018-09-16T11:14:12.958Z,3.00
2018-09-16T11:15:12.954Z,3.60
2018-09-16T11:16:13.108Z,1.80
2018-09-16T11:17:13.349Z,2.30
2018-09-16T11:18:14.188Z,2.00
2018-09-16T11:19:13.776Z,2.80
2018-09-16T11:20:14.086Z,2.50
2018-09-16T11:58:18.815Z,1.60
2018-09-16T11:58:32.140Z,2.30
2018-09-16T11:59:34.379Z,3.20
2018-09-16T12:00:32.381Z,1.90
2018-09-16T12:01:32.489Z,2.40
2018-09-16T12:02:32.673Z,1.50
2018-09-16T12:03:32.822Z,1.70
2018-09-16T12:04:32.953Z,2.80
2018-09-16T12:05:33.200Z,2.00
2018-09-16T12:06:33.398Z,2.30
2018-09-16T12:07:33.623Z,1.60
2018-09-16T12:08:33.804Z,2.20
2018-09-16T12:09:33.939Z,2.10
2018-09-16T12:10:34.116Z,3.60
2018-09-16T12:11:34.320Z,2.10
2018-09-16T12:12:34.464Z,1.70
2018-09-16T12:13:34.711Z,2.30
2018-09-16T12:14:34.971Z,2.80
2018-09-16T12:15:35.075Z,2.50
2018-09-16T12:16:35.193Z,1.90
2018-09-16T12:17:35.389Z,2.00
2018-09-16T12:18:35.590Z,2.20
2018-09-16T12:19:35.728Z,1.60
2018-09-16T12:20:35.920Z,1.90
2018-09-16T12:21:36.121Z,2.40
2018-09-16T12:22:36.264Z,2.00
2018-09-16T12:23:36.457Z,1.70
2018-09-16T12:24:36.783Z,2.70
2018-09-16T12:37:16.269Z,1.60
2018-09-16T12:39:31.921Z,2.60
2018-09-16T12:40:13.170Z,1.70
2018-09-16T12:42:16.863Z,1.90
2018-09-16T12:43:13.803Z,2.60
2018-09-16T12:45:48.291Z,1.70
2018-09-16T12:47:53.389Z,2.20
2018-09-16T12:48:46.648Z,1.60
2018-09-16T12:49:46.967Z,1.90
2018-09-16T12:50:46.987Z,2.70
2018-09-16T12:51:47.252Z,1.80
2018-09-16T12:52:47.484Z,1.70
2018-09-16T12:58:42.669Z,1.60
2018-09-16T13:00:39.566Z,2.20
2018-09-16T13:33:56.506Z,1.70
2018-09-16T13:44:01.632Z,1.80
2018-09-16T13:49:57.342Z,2.20
2018-09-16T13:50:57.484Z,2.70
2018-09-16T13:51:57.825Z,2.80
2018-09-16T13:52:56.057Z,1.80
2018-09-16T13:53:55.880Z,1.80
2018-09-16T13:54:56.080Z,2.10
2018-09-16T13:55:56.217Z,1.30
2018-09-16T13:56:56.401Z,2.40
2018-09-16T13:57:56.488Z,1.40
2018-09-16T13:58:56.762Z,1.40
2018-09-16T13:59:56.966Z,2.70
2018-09-16T14:00:58.418Z,1.90
2018-09-16T14:01:57.387Z,1.50
2018-09-16T14:02:57.466Z,1.80
2018-09-16T14:03:57.724Z,1.50
2018-09-16T14:05:12.872Z,2.00
2018-09-16T14:05:58.202Z,2.00
2018-09-16T14:06:58.649Z,1.50
2018-09-16T14:07:59.271Z,1.40
2018-09-16T14:08:59.047Z,2.90
2018-09-16T14:09:59.109Z,1.40
2018-09-16T14:10:59.378Z,1.80
2018-09-16T14:11:59.484Z,1.60
2018-09-16T14:12:59.650Z,1.40
2018-09-16T14:13:59.909Z,2.10
2018-09-16T14:15:00.077Z,2.60
2018-09-16T14:16:00.318Z,2.20
2018-09-16T14:17:00.453Z,1.40
2018-09-16T14:18:00.627Z,2.60
2018-09-16T14:19:00.801Z,1.50
2018-09-16T14:20:01.173Z,2.00
2018-09-16T14:21:01.522Z,1.60
2018-09-16T14:22:01.446Z,1.50
2018-09-16T14:23:01.599Z,1.90
2018-09-16T14:24:01.751Z,1.30
2018-09-16T14:25:02.044Z,1.20
2018-09-16T14:26:02.156Z,1.50
2018-09-16T14:27:02.264Z,2.00
2018-09-16T14:28:02.435Z,1.90
2018-09-16T14:29:02.765Z,2.20
2018-09-16T14:30:02.903Z,1.70
2018-09-16T14:31:03.089Z,1.80
2018-09-16T14:32:03.634Z,2.00
2018-09-16T14:33:03.549Z,1.60
2018-09-16T14:34:03.681Z,1.60
2018-09-16T14:35:03.861Z,2.30
2018-09-16T14:36:04.558Z,1.80
2018-09-16T14:37:04.371Z,1.40
2018-09-16T14:38:04.902Z,8.50
2018-09-16T14:39:04.920Z,5.40
2018-09-16T14:40:05.391Z,1.70
2018-09-16T14:41:05.220Z,1.70
2018-09-16T14:42:05.339Z,3.00
2018-09-16T14:43:05.455Z,1.50
2018-09-16T14:44:05.638Z,1.70
2018-09-16T14:45:05.807Z,1.60
2018-09-16T14:46:06.157Z,1.40
2018-09-16T14:47:06.426Z,1.10
2018-09-16T14:48:06.378Z,2.10
2018-09-16T14:49:07.268Z,2.00
2018-09-16T14:50:06.750Z,2.90
2018-09-16T14:51:07.275Z,1.20
2018-09-16T14:52:07.283Z,1.20
2018-09-16T14:53:07.588Z,1.80
2018-09-16T14:54:07.665Z,1.60
2018-09-16T14:55:07.805Z,1.70
2018-09-16T14:56:08.201Z,1.90
2018-09-16T14:57:08.182Z,1.80
2018-09-16T14:58:08.622Z,1.40
2018-09-16T14:59:08.519Z,2.10
2018-09-16T15:00:08.892Z,1.40
2018-09-16T15:01:09.104Z,2.20
2018-09-16T15:02:09.096Z,1.50
2018-09-16T15:03:09.565Z,1.60
2018-09-16T15:04:09.720Z,1.80
2018-09-16T15:05:09.731Z,2.10
2018-09-16T15:06:10.133Z,2.10
2018-09-16T15:07:10.201Z,1.70
2018-09-16T15:13:46.713Z,1.80
2018-09-16T15:14:41.907Z,1.80
2018-09-16T15:17:08.508Z,2.30
2018-09-16T15:17:29.869Z,2.10
2018-09-16T15:21:00.918Z,1.80
2018-09-16T15:22:04.096Z,1.80
2018-09-16T15:23:14.596Z,2.50
2018-09-16T15:23:56.137Z,1.90
2018-09-16T15:24:58.454Z,2.40
2018-09-16T15:27:10.269Z,1.50
2018-09-16T15:30:14.980Z,1.70
2018-09-16T15:30:58.002Z,2.70
2018-09-16T15:33:57.693Z,2.70
2018-09-16T15:35:01.533Z,1.50
2018-09-16T15:36:41.871Z,1.70
2018-09-16T15:37:13.011Z,1.70
2018-09-16T15:37:59.476Z,2.10
2018-09-16T15:39:00.948Z,3.00
2018-09-16T15:40:05.265Z,1.50
2018-09-16T15:40:56.491Z,1.90
2018-09-16T15:41:57.048Z,2.20
2018-09-16T15:42:54.959Z,2.20
2018-09-16T15:43:54.960Z,2.40
2018-09-16T15:49:06.847Z,1.80
2018-09-16T15:50:08.458Z,1.40
2018-09-16T15:51:07.909Z,2.60
2018-09-16T15:52:08.184Z,1.70
2018-09-16T15:53:44.306Z,2.00
2018-09-16T15:54:17.666Z,3.70
2018-09-16T15:55:09.964Z,1.70
2018-09-16T15:57:09.211Z,2.10
2018-09-16T15:58:10.061Z,1.90
2018-09-16T15:59:11.973Z,1.40
2018-09-16T16:01:23.804Z,2.00
2018-09-16T16:02:08.993Z,2.40
2018-09-16T16:16:53.984Z,1.70
2018-09-16T19:38:17.066Z,4.00
2018-09-16T19:39:29.173Z,2.60
2018-09-16T19:40:25.551Z,2.40
2018-09-16T19:41:23.373Z,2.30
2018-09-16T19:42:22.761Z,2.70
2018-09-16T19:43:27.398Z,2.90
2018-09-16T19:46:17.003Z,3.60
2018-09-16T19:47:16.633Z,2.60
2018-09-16T19:48:16.617Z,5.80
2018-09-16T19:49:17.644Z,1.90
2018-09-16T19:50:15.012Z,2.60
2018-09-16T19:51:12.799Z,2.90
2018-09-16T19:52:13.365Z,2.30
2018-09-16T19:54:51.357Z,2.60
2018-09-16T19:55:20.896Z,2.40
2018-09-16T19:57:26.603Z,1.60
2018-09-16T19:58:45.376Z,2.60
2018-09-16T19:59:41.218Z,2.10
2018-09-16T20:01:00.577Z,4.80
2018-09-16T20:01:51.926Z,2.10
2018-09-16T20:02:50.028Z,1.90
2018-09-16T20:03:41.726Z,2.40
2018-09-16T20:04:43.087Z,2.30
2018-09-16T20:05:40.215Z,2.10
2018-09-16T20:07:56.762Z,2.20
2018-09-16T20:09:42.715Z,2.70
2018-09-16T20:10:44.580Z,2.10
2018-09-16T20:11:51.381Z,2.90
2018-09-16T20:12:46.247Z,2.50
2018-09-16T20:14:02.357Z,2.90
2018-09-16T20:15:21.498Z,2.00
2018-09-16T20:15:41.717Z,2.70
2018-09-16T20:16:45.839Z,3.60
2018-09-16T20:17:50.284Z,2.60
2018-09-16T20:18:43.232Z,2.40
2018-09-16T20:19:44.747Z,2.10
2018-09-16T20:21:11.215Z,4.00
2018-09-16T20:21:44.555Z,2.70
2018-09-16T20:22:49.207Z,3.20
2018-09-16T20:23:47.691Z,2.70
2018-09-16T20:25:45.081Z,2.10
2018-09-16T20:26:45.095Z,1.90
2018-09-16T20:27:45.724Z,2.30
2018-09-16T20:28:47.464Z,2.00
2018-09-16T20:29:45.052Z,2.90
2018-09-16T20:30:46.994Z,1.90
2018-09-16T20:31:52.614Z,2.60
2018-09-16T20:32:49.784Z,2.30
2018-09-16T20:33:49.884Z,2.10
2018-09-16T20:34:54.727Z,2.70
2018-09-16T20:35:53.480Z,2.00
2018-09-16T20:37:55.145Z,2.60
2018-09-16T20:38:57.574Z,2.40
2018-09-16T20:40:03.491Z,2.20
2018-09-16T20:40:51.772Z,1.80
2018-09-16T20:41:50.253Z,1.60
2018-09-16T20:42:51.798Z,2.80
2018-09-16T20:43:47.086Z,2.50
2018-09-16T20:44:47.237Z,2.80
2018-09-16T20:45:46.867Z,2.80
2018-09-16T20:46:47.226Z,2.90
2018-09-16T20:47:47.359Z,2.00
2018-09-16T20:48:48.445Z,3.10
2018-09-16T20:49:47.836Z,2.10
2018-09-16T20:50:49.696Z,2.20
2018-09-16T20:52:48.778Z,1.80
2018-09-16T20:53:46.347Z,1.90
2018-09-16T20:54:46.060Z,1.90
2018-09-16T20:55:46.420Z,2.30
2018-09-16T20:56:46.621Z,1.80
2018-09-16T20:57:46.213Z,1.70
2018-09-16T20:58:46.749Z,2.70
2018-09-16T20:59:47.309Z,2.20
2018-09-16T21:01:47.636Z,4.60
2018-09-16T21:02:47.172Z,3.30
2018-09-16T21:03:47.145Z,2.20
2018-09-16T21:04:47.616Z,3.30
2018-09-16T21:06:01.800Z,2.00
2018-09-16T21:06:53.457Z,3.60
2018-09-16T21:08:00.205Z,2.00
2018-09-16T21:08:50.933Z,2.20
2018-09-16T21:10:52.301Z,2.20
2018-09-16T21:11:55.220Z,2.40
2018-09-16T21:12:52.992Z,2.20
2018-09-16T21:13:52.148Z,1.80
2018-09-16T21:14:52.350Z,2.20
2018-09-16T21:15:51.537Z,2.10
2018-09-16T21:16:49.851Z,2.80
2018-09-16T21:17:50.264Z,2.20
2018-09-16T21:18:52.707Z,1.70
2018-09-16T21:19:50.372Z,1.80
2018-09-16T21:20:51.332Z,2.80
2018-09-16T21:21:51.274Z,3.10
2018-09-16T21:22:57.316Z,2.50
2018-09-16T21:24:05.683Z,2.30
2018-09-16T21:24:53.457Z,1.80
2018-09-16T21:25:51.115Z,1.80
2018-09-16T21:26:51.955Z,3.40
2018-09-16T21:27:53.506Z,3.50
2018-09-16T21:28:52.181Z,2.40
2018-09-16T21:29:51.620Z,2.10
2018-09-16T21:30:52.686Z,2.60
2018-09-16T21:31:52.538Z,2.10
2018-09-16T21:32:53.955Z,1.70
2018-09-16T21:33:54.492Z,2.00
2018-09-16T21:35:16.008Z,3.00
2018-09-16T21:45:02.250Z,3.20
